Hauptseite
METAR-TAF:

METAR-TAF

Flughäfen :

Kigoma, Tansania

Breite: 04-53S, Länge: 029-38E, Höhe: 882 m

Beobachtung

Neuester Wetterbericht von vor 1 Stunde und 19 Minuten, um 14:00 UTC
Wind 10 kt aus West/Südwest
Temperatur 28°C
Luftfeuchtigkeit 62%
Luftdruck 1015 hPa
Sichtweite 10 km oder mehr
Leicht bewölkt in der Höhe von 2300 ft

METAR: HTKA 061400Z 24010KT 9999 FEW023 28/20 Q1015 NOSIG

Zeit: 18:19 (15:19 UTC)

Prognose

Neuester Wetterbericht von vor 4 Stunden und 19 Minuten, um 11:00 UTC
Gültige Prognose vom 06 um 12 UTC bis 07 um 12 UTC
Wind 12 kt aus West
Sichtweite 10 km oder mehr
Leicht bewölkt in der Höhe von 2400 ft
Übergehend zu
vom 06 um 12 UTC bis 06 um 15 UTC
Wind 10 kt aus West
Zeitweise
vom 06 um 17 UTC bis 07 um 00 UTC
Wind kt aus Nord

TAF: HTKA 061100Z 0612/0712 26012KT 9999 FEW024 BECMG 0612/0615 27010KT TEMPO 0617/0700 00000KT

Wetterbeobachtungen und Prognosen von mehr als 4000 Flughäfen (METAR und TAF Bericht).

Die verfügbaren Stationen werden durch gelbe und rote Markierungen auf der Karte dargestellt.

Führen Sie die Maus auf sie, um den Namen der Station zu sehen.

Darauf klicken, um die Beobachtung von Wetterbeobachtungen und Prognosen zu sehen.

Um die Karte zu ändern : klicken Sie auf den grünen Tasten mit einem schwarzen Kreuz Zum Vergrößern, auf den grünen Button mit einem Gedankenstrich zu verkleinern, oder auf die grünen Pfeile für benachbarte Karten.


METAR-TAF: